»·PEaware :: N7017R KBUR-KFUL

N7017R :: KBUR-KFUL

FLIGHT INFORMATION

Flight Status: Arrived
Operator: Privately registered:
United States
More flights under this callsign
Pilot: Greg D. (33201)
Aircraft: PIPER PA-28 CHEROKEE ARCHER
(P28A)
More flights by this aircraft type
Origin: KBUR Bob Hope-Burbank
United States
Destination: KFUL Fullerton Mun
United States
More flights between these airports :: More routes between these airports
Route:
File this flight plan on PilotEdge
Remarks:
Altitude:
(Current/Filed)
3,500ft
Speed:
(Current/Filed)
90kts
Departed: 22-Feb-21 09:44 PM
Arrived: 22-Feb-21 10:08 PM
Distance/Time
Traveled:
27nm/0:24
Distance/Time
To Go:
Arrived

Flight Plot

Page will automatically refresh every two minutes.


Map Options




Map Legend


Flown Route
Filed Route
Departure Airport
Arrival Airport
Navaid (VOR, NDB)
Fix

Horizontal Profiles

Position Reports

Time Latitude Longitude Heading Altitude Ground
Speed
22-Feb-21 21:15 34.200211 -118.358864 280 723ft 0kts
22-Feb-21 21:16 34.200211 -118.358864 280 723ft 0kts
22-Feb-21 21:17 34.200211 -118.358864 280 723ft 0kts
22-Feb-21 21:18 34.200211 -118.358864 280 723ft 0kts
22-Feb-21 21:19 34.200211 -118.358864 280 723ft 0kts
22-Feb-21 21:20 34.200211 -118.358864 280 723ft 0kts
22-Feb-21 21:21 34.200211 -118.358864 280 723ft 0kts
22-Feb-21 21:22 34.200211 -118.358864 280 723ft 0kts
22-Feb-21 21:23 34.200211 -118.358864 280 723ft 0kts
22-Feb-21 21:24 34.200211 -118.358864 280 723ft 0kts
22-Feb-21 21:25 34.200211 -118.358864 280 723ft 0kts
22-Feb-21 21:26 34.200211 -118.358864 280 723ft 0kts
22-Feb-21 21:27 34.200211 -118.358864 280 723ft 0kts
22-Feb-21 21:28 34.200211 -118.358864 280 723ft 0kts
22-Feb-21 21:29 34.200211 -118.358864 280 723ft 0kts
22-Feb-21 21:30 34.200211 -118.358864 280 723ft 0kts
22-Feb-21 21:31 34.200211 -118.358864 280 723ft 0kts
22-Feb-21 21:32 34.200211 -118.358864 280 723ft 0kts
22-Feb-21 21:33 34.200211 -118.358864 280 723ft 0kts
22-Feb-21 21:34 34.200211 -118.358864 280 723ft 0kts
22-Feb-21 21:35 34.200863 -118.359399 340 727ft 12kts
22-Feb-21 21:36 34.203483 -118.359174 346 738ft 18kts
22-Feb-21 21:37 34.209131 -118.360740 347 766ft 19kts
22-Feb-21 21:38 34.211960 -118.361339 38 776ft 0kts
22-Feb-21 21:39 34.211960 -118.361339 38 776ft 0kts
22-Feb-21 21:40 34.211960 -118.361339 38 776ft 0kts
22-Feb-21 21:41 34.211960 -118.361339 38 776ft 0kts
22-Feb-21 21:43 34.211961 -118.361338 38 776ft 0kts
22-Feb-21 21:44 34.201096 -118.357319 165 849ft 100kts
22-Feb-21 21:45 34.176720 -118.340461 124 1774ft 99kts
22-Feb-21 21:46 34.161504 -118.310863 97 2535ft 99kts
22-Feb-21 21:47 34.156592 -118.275263 96 3138ft 101kts
22-Feb-21 21:48 34.153120 -118.239741 95 3516ft 100kts
22-Feb-21 21:49 34.150404 -118.203710 90 3524ft 103kts
22-Feb-21 21:50 34.149757 -118.168184 104 3538ft 103kts
22-Feb-21 21:51 34.142530 -118.133064 117 3556ft 102kts
22-Feb-21 21:52 34.127230 -118.103083 124 3571ft 101kts
22-Feb-21 21:53 34.111609 -118.073672 124 3590ft 101kts
22-Feb-21 21:54 34.094699 -118.044713 124 3572ft 105kts
22-Feb-21 21:55 34.072926 -118.019390 148 3502ft 105kts
22-Feb-21 21:56 34.047319 -118.000386 148 3550ft 100kts
22-Feb-21 21:57 34.021373 -117.980946 148 3532ft 105kts
22-Feb-21 21:58 33.995136 -117.961340 148 3497ft 105kts
22-Feb-21 21:59 33.968762 -117.941225 148 3484ft 104kts
22-Feb-21 22:00 33.941892 -117.920590 148 3367ft 106kts
22-Feb-21 22:01 33.915581 -117.902224 195 2566ft 115kts
22-Feb-21 22:02 33.893713 -117.930373 258 1807ft 107kts
22-Feb-21 22:03 33.876526 -117.957493 256 938ft 115kts
22-Feb-21 22:04 33.870035 -117.990992 260 339ft 70kts
22-Feb-21 22:05 33.861876 -117.980562 86 846ft 90kts
22-Feb-21 22:06 33.865330 -117.951501 9 848ft 74kts
22-Feb-21 22:06 33.874811 -117.965224 258 462ft 83kts
22-Feb-21 22:08 33.870957 -117.983258 163 88ft 0kts
22-Feb-21 22:09 33.870655 -117.983068 265 89ft 0kts
22-Feb-21 22:09 33.870653 -117.983099 266 89ft 0kts

Navigation Log

Ident Type
Flight plan parsing failed, navigation log unavailable